createdAt,value
2023-03-27T00:01:38.265Z,1.57
2023-03-27T00:04:06.876Z,1.60
2023-03-27T00:06:35.294Z,1.57
2023-03-27T00:09:04.611Z,1.20
2023-03-27T00:11:33.191Z,1.27
2023-03-27T00:14:01.544Z,0.90
2023-03-27T00:16:30.577Z,1.83
2023-03-27T00:19:00.524Z,1.03
2023-03-27T00:21:29.107Z,1.40
2023-03-27T00:23:57.433Z,1.47
2023-03-27T00:26:25.818Z,1.87
2023-03-27T00:28:54.832Z,1.53
2023-03-27T00:31:23.393Z,1.67
2023-03-27T00:33:51.913Z,1.20
2023-03-27T00:36:21.927Z,1.67
2023-03-27T00:38:53.101Z,1.50
2023-03-27T00:41:21.677Z,1.20
2023-03-27T00:43:50.609Z,1.50
2023-03-27T00:46:27.725Z,2.30
2023-03-27T00:48:57.519Z,1.17
2023-03-27T00:51:28.290Z,1.30
2023-03-27T00:53:56.994Z,1.50
2023-03-27T00:56:26.040Z,1.57
2023-03-27T00:58:55.617Z,1.37
2023-03-27T01:01:25.381Z,1.27
2023-03-27T01:03:54.448Z,1.70
2023-03-27T01:06:23.578Z,1.40
2023-03-27T01:08:53.307Z,1.40
2023-03-27T01:11:37.331Z,1.07
2023-03-27T01:14:21.978Z,2.00
2023-03-27T01:16:54.185Z,1.50
2023-03-27T01:19:42.310Z,1.13
2023-03-27T01:22:25.864Z,1.00
2023-03-27T01:25:11.613Z,0.93
2023-03-27T01:27:51.562Z,1.23
2023-03-27T01:30:21.604Z,1.00
2023-03-27T01:33:26.614Z,1.20
2023-03-27T01:36:13.593Z,1.70
2023-03-27T01:38:56.836Z,1.00
2023-03-27T01:41:28.790Z,1.03
2023-03-27T01:44:01.228Z,1.07
2023-03-27T01:46:34.745Z,1.37
2023-03-27T01:49:07.038Z,0.87
2023-03-27T01:51:37.292Z,1.20
2023-03-27T01:54:07.889Z,1.30
2023-03-27T01:56:40.192Z,1.00
2023-03-27T01:59:11.242Z,1.30
2023-03-27T02:01:41.297Z,1.63
2023-03-27T02:04:12.672Z,0.87
2023-03-27T02:06:44.846Z,1.23
2023-03-27T02:09:15.858Z,1.60
2023-03-27T02:11:47.091Z,1.23
2023-03-27T02:14:17.775Z,1.50
2023-03-27T02:16:55.025Z,1.33
2023-03-27T02:19:25.098Z,1.10
2023-03-27T02:21:53.411Z,1.40
2023-03-27T02:24:22.444Z,1.60
2023-03-27T02:26:54.168Z,1.23
2023-03-27T02:29:29.105Z,1.30
2023-03-27T02:32:04.342Z,1.03
2023-03-27T02:34:44.279Z,1.23
2023-03-27T02:37:21.920Z,2.27
2023-03-27T02:39:55.144Z,1.30
2023-03-27T02:42:26.081Z,2.07
2023-03-27T02:44:56.847Z,1.23
2023-03-27T02:47:27.741Z,1.33
2023-03-27T02:49:57.969Z,1.40
2023-03-27T02:52:28.426Z,1.33
2023-03-27T02:55:04.831Z,1.63
2023-03-27T02:57:39.560Z,1.37
2023-03-27T03:00:25.451Z,1.30
2023-03-27T03:02:56.668Z,1.00
2023-03-27T03:05:25.567Z,1.53
2023-03-27T03:07:54.408Z,1.63
2023-03-27T03:10:24.740Z,1.20
2023-03-27T03:12:54.480Z,0.90
2023-03-27T03:15:22.957Z,1.33
2023-03-27T03:17:52.896Z,1.10
2023-03-27T03:20:21.584Z,0.80
2023-03-27T03:22:49.902Z,1.43
2023-03-27T03:25:19.865Z,1.33
2023-03-27T03:27:48.249Z,1.27
2023-03-27T03:30:18.429Z,0.90
2023-03-27T03:32:47.330Z,0.90
2023-03-27T03:35:15.887Z,1.80
2023-03-27T03:37:51.219Z,1.50
2023-03-27T03:40:19.992Z,1.33
2023-03-27T03:42:48.808Z,1.40
2023-03-27T03:45:19.220Z,1.40
2023-03-27T03:47:47.936Z,1.00
2023-03-27T03:50:16.588Z,2.57
2023-03-27T03:52:45.037Z,3.60
2023-03-27T03:55:13.681Z,1.30
2023-03-27T03:57:42.051Z,1.47
2023-03-27T04:00:12.248Z,1.37
2023-03-27T04:02:43.683Z,1.20
2023-03-27T04:05:12.133Z,1.50
2023-03-27T04:07:41.186Z,1.17
2023-03-27T04:10:10.131Z,1.20
2023-03-27T04:12:38.486Z,1.67
2023-03-27T04:15:07.564Z,1.57
2023-03-27T04:17:36.007Z,2.33
2023-03-27T04:20:06.850Z,1.10
2023-03-27T04:22:38.037Z,2.00
2023-03-27T04:25:07.205Z,1.00
2023-03-27T04:30:04.044Z,1.40
2023-03-27T04:32:32.397Z,1.67
2023-03-27T04:35:00.914Z,1.57
2023-03-27T04:37:31.000Z,1.57
2023-03-27T04:40:00.441Z,1.87
2023-03-27T04:42:28.841Z,1.63
2023-03-27T04:44:57.761Z,1.70
2023-03-27T04:47:26.310Z,1.37
2023-03-27T04:49:54.988Z,1.87
2023-03-27T04:52:25.525Z,2.00
2023-03-27T04:54:55.231Z,1.77
2023-03-27T04:57:27.682Z,1.67
2023-03-27T04:59:56.079Z,1.90
2023-03-27T05:02:26.532Z,1.13
2023-03-27T05:04:58.654Z,1.77
2023-03-27T05:07:28.400Z,1.63
2023-03-27T05:09:58.406Z,1.67
2023-03-27T05:12:27.019Z,1.60
2023-03-27T05:14:55.449Z,1.67
2023-03-27T05:17:25.793Z,1.07
2023-03-27T05:19:54.254Z,1.63
2023-03-27T05:22:22.666Z,1.40
2023-03-27T05:24:51.649Z,1.60
2023-03-27T05:27:21.384Z,1.33
2023-03-27T05:29:50.269Z,1.40
2023-03-27T05:32:18.638Z,1.40
2023-03-27T05:34:50.706Z,1.90
2023-03-27T05:37:19.281Z,1.57
2023-03-27T05:39:47.602Z,1.97
2023-03-27T05:42:16.205Z,1.77
2023-03-27T05:44:46.008Z,1.80
2023-03-27T05:47:14.573Z,1.63
2023-03-27T05:49:42.795Z,1.90
2023-03-27T05:52:10.882Z,2.33
2023-03-27T05:54:39.380Z,1.50
2023-03-27T05:57:07.948Z,1.53
2023-03-27T05:59:36.343Z,1.83
2023-03-27T06:02:06.269Z,1.97
2023-03-27T06:04:34.834Z,2.37
2023-03-27T06:07:03.512Z,1.60
2023-03-27T06:09:32.579Z,1.57
2023-03-27T06:12:00.950Z,2.17
2023-03-27T06:14:29.294Z,1.83
2023-03-27T06:16:57.640Z,2.20
2023-03-27T06:19:27.372Z,2.10
2023-03-27T06:21:55.717Z,2.00
2023-03-27T06:24:24.084Z,1.97
2023-03-27T06:26:52.741Z,2.13
2023-03-27T06:29:21.254Z,2.43
2023-03-27T06:31:49.601Z,2.83
2023-03-27T06:34:17.949Z,2.40
2023-03-27T06:36:47.655Z,2.53
2023-03-27T06:39:16.193Z,3.07
2023-03-27T06:41:44.554Z,2.67
2023-03-27T06:44:12.997Z,2.30
2023-03-27T06:46:45.533Z,1.60
2023-03-27T06:49:14.229Z,2.00
2023-03-27T06:51:42.902Z,2.17
2023-03-27T06:54:14.687Z,1.50
2023-03-27T06:56:44.321Z,1.97
2023-03-27T06:59:13.522Z,1.67
2023-03-27T07:01:41.938Z,1.70
2023-03-27T07:04:10.415Z,1.80
2023-03-27T07:06:39.712Z,1.77
2023-03-27T07:09:08.375Z,1.90
2023-03-27T07:11:37.772Z,2.10
2023-03-27T07:14:06.325Z,2.40
2023-03-27T07:16:34.756Z,1.93
2023-03-27T07:19:03.565Z,1.57
2023-03-27T07:21:32.261Z,1.97
2023-03-27T07:24:00.826Z,2.50
2023-03-27T07:26:29.431Z,2.30
2023-03-27T07:29:00.782Z,1.97
2023-03-27T07:31:51.055Z,1.90
2023-03-27T07:34:17.914Z,2.07
2023-03-27T07:36:46.382Z,2.23
2023-03-27T07:39:14.696Z,1.57
2023-03-27T07:41:43.045Z,1.50
2023-03-27T07:44:13.159Z,1.63
2023-03-27T07:46:41.258Z,1.60
2023-03-27T07:49:09.718Z,2.00
2023-03-27T07:51:38.726Z,1.83
2023-03-27T07:54:07.352Z,1.60
2023-03-27T07:56:35.912Z,1.73
2023-03-27T07:59:04.353Z,1.60
2023-03-27T08:01:34.269Z,2.37
2023-03-27T08:04:02.809Z,1.43
2023-03-27T08:06:31.238Z,1.70
2023-03-27T08:09:01.548Z,2.27
2023-03-27T08:11:31.240Z,1.93
2023-03-27T08:14:00.027Z,2.13
2023-03-27T08:16:29.831Z,1.73
2023-03-27T08:19:00.868Z,1.97
2023-03-27T08:21:29.647Z,1.77
2023-03-27T08:23:58.818Z,1.50
2023-03-27T08:26:27.793Z,2.40
2023-03-27T08:28:56.463Z,1.70
2023-03-27T08:31:25.755Z,1.50
2023-03-27T08:33:54.201Z,1.77
2023-03-27T08:36:24.118Z,2.07
2023-03-27T08:38:55.386Z,1.80
2023-03-27T08:41:28.213Z,1.73
2023-03-27T08:43:57.670Z,1.87
2023-03-27T08:46:29.716Z,2.03
2023-03-27T08:49:00.046Z,1.87
2023-03-27T08:51:31.606Z,3.57
2023-03-27T08:54:02.466Z,3.60
2023-03-27T08:56:30.801Z,3.77
2023-03-27T08:58:59.221Z,3.10
2023-03-27T09:01:31.269Z,2.67
2023-03-27T09:04:02.887Z,2.50
2023-03-27T09:06:38.309Z,2.33
2023-03-27T09:09:09.637Z,2.23
2023-03-27T09:11:42.414Z,1.90
2023-03-27T09:14:20.836Z,2.10
2023-03-27T09:16:52.195Z,2.20
2023-03-27T09:19:31.657Z,2.37
2023-03-27T09:22:02.726Z,3.10
2023-03-27T09:24:34.700Z,3.43
2023-03-27T09:27:13.720Z,3.47
2023-03-27T09:29:43.132Z,3.47
2023-03-27T09:32:14.671Z,3.00
2023-03-27T09:34:43.221Z,2.90
2023-03-27T09:37:14.724Z,2.50
2023-03-27T09:39:47.510Z,1.83
2023-03-27T09:42:19.339Z,1.60
2023-03-27T09:44:50.306Z,2.17
2023-03-27T09:47:22.352Z,2.60
2023-03-27T09:49:52.300Z,2.40
2023-03-27T09:52:36.900Z,1.97
2023-03-27T09:55:06.856Z,2.00
2023-03-27T09:57:37.417Z,2.00
2023-03-27T10:00:14.681Z,2.50
2023-03-27T10:02:43.833Z,2.83
2023-03-27T10:05:17.950Z,2.80
2023-03-27T10:07:49.856Z,2.60
2023-03-27T10:10:19.950Z,2.80
2023-03-27T10:12:54.412Z,3.77
2023-03-27T10:15:33.963Z,4.00
2023-03-27T10:18:04.444Z,4.10
2023-03-27T10:20:33.135Z,3.70
2023-03-27T10:23:03.942Z,3.70
2023-03-27T10:25:34.366Z,2.80
2023-03-27T10:28:11.573Z,2.30
2023-03-27T10:30:40.938Z,2.93
2023-03-27T10:33:09.415Z,2.93
2023-03-27T10:35:39.130Z,2.57
2023-03-27T10:38:14.614Z,2.33
2023-03-27T10:40:44.647Z,3.20
2023-03-27T10:43:13.895Z,3.30
2023-03-27T10:45:45.782Z,2.40
2023-03-27T10:48:27.095Z,2.90
2023-03-27T10:50:57.814Z,3.00
2023-03-27T10:53:37.342Z,2.70
2023-03-27T10:56:10.777Z,2.80
2023-03-27T10:58:42.820Z,2.70
2023-03-27T11:01:14.002Z,2.70
2023-03-27T11:03:51.172Z,2.60
2023-03-27T11:06:23.274Z,3.70
2023-03-27T11:09:01.911Z,3.03
2023-03-27T11:11:32.323Z,2.37
2023-03-27T11:14:02.522Z,2.10
2023-03-27T11:16:34.475Z,2.67
2023-03-27T11:19:17.162Z,2.70
2023-03-27T11:21:48.657Z,3.00
2023-03-27T11:24:23.744Z,2.80
2023-03-27T11:27:01.368Z,3.00
2023-03-27T11:29:34.171Z,3.13
2023-03-27T11:32:06.126Z,3.37
2023-03-27T11:34:39.078Z,3.20
2023-03-27T11:37:14.662Z,2.63
2023-03-27T11:39:49.725Z,3.20
2023-03-27T11:42:19.704Z,2.73
2023-03-27T11:44:48.049Z,2.63
2023-03-27T11:47:27.660Z,2.70
2023-03-27T11:50:17.274Z,2.10
2023-03-27T11:52:54.360Z,2.40
2023-03-27T11:55:32.633Z,2.40
2023-03-27T11:58:15.916Z,2.57
2023-03-27T12:00:53.285Z,3.17
2023-03-27T12:03:52.804Z,2.80
2023-03-27T12:06:29.376Z,3.03
2023-03-27T12:09:11.506Z,2.90
2023-03-27T12:11:45.579Z,2.73
2023-03-27T12:14:40.633Z,4.07
2023-03-27T12:17:24.237Z,2.77
2023-03-27T12:20:10.836Z,2.47
2023-03-27T12:22:48.587Z,2.30
2023-03-27T12:25:31.004Z,1.90
2023-03-27T12:28:06.978Z,1.90
2023-03-27T12:30:40.538Z,1.90
2023-03-27T12:33:17.273Z,2.13
2023-03-27T12:35:47.390Z,1.47
2023-03-27T12:38:18.863Z,1.73
2023-03-27T12:41:01.299Z,1.70
2023-03-27T12:43:33.602Z,1.80
2023-03-27T12:46:09.190Z,1.80
2023-03-27T12:48:47.980Z,4.00
2023-03-27T12:51:17.616Z,1.97
2023-03-27T12:54:00.834Z,1.50
2023-03-27T12:56:33.490Z,1.40
2023-03-27T12:59:15.421Z,1.23
2023-03-27T13:01:56.683Z,1.90
2023-03-27T13:04:33.186Z,1.53
2023-03-27T13:07:06.203Z,1.37
2023-03-27T13:09:44.872Z,2.03
2023-03-27T13:12:20.049Z,1.80
2023-03-27T13:15:06.636Z,1.73
2023-03-27T13:17:56.313Z,1.87
2023-03-27T13:20:28.650Z,1.50
2023-03-27T13:23:11.873Z,1.80
2023-03-27T13:25:57.008Z,1.87
2023-03-27T13:28:32.661Z,1.70
2023-03-27T13:31:04.542Z,2.30
2023-03-27T13:33:45.302Z,1.90
2023-03-27T13:36:14.990Z,1.73
2023-03-27T13:39:06.047Z,1.90
2023-03-27T13:41:42.046Z,1.80
2023-03-27T13:44:12.707Z,1.70
2023-03-27T13:46:48.950Z,1.67
2023-03-27T13:49:27.244Z,1.70
2023-03-27T13:52:46.315Z,1.80
2023-03-27T13:55:39.569Z,2.03
2023-03-27T13:58:34.064Z,1.73
2023-03-27T14:01:09.687Z,1.83
2023-03-27T14:04:05.520Z,1.60
2023-03-27T14:06:46.513Z,1.60
2023-03-27T14:09:18.553Z,1.43
2023-03-27T14:12:01.390Z,1.37
2023-03-27T14:14:38.849Z,1.90
2023-03-27T14:17:19.650Z,1.60
2023-03-27T14:20:11.548Z,2.20
2023-03-27T14:22:48.719Z,1.67
2023-03-27T14:25:19.744Z,1.70
2023-03-27T14:27:54.001Z,2.03
2023-03-27T14:30:23.994Z,1.73
2023-03-27T14:32:53.270Z,1.90
2023-03-27T14:35:36.053Z,1.50
2023-03-27T14:38:07.566Z,1.43
2023-03-27T14:40:36.782Z,1.63
2023-03-27T14:43:07.151Z,1.80
2023-03-27T14:45:39.330Z,1.73
2023-03-27T14:48:10.070Z,2.00
2023-03-27T14:50:39.747Z,1.90
2023-03-27T14:53:11.030Z,1.80
2023-03-27T14:55:42.544Z,2.13
2023-03-27T14:58:13.993Z,1.60
2023-03-27T15:00:43.030Z,1.37
2023-03-27T15:03:15.002Z,1.40
2023-03-27T15:05:57.712Z,1.60
2023-03-27T15:08:29.451Z,1.20
2023-03-27T15:10:57.903Z,1.23
2023-03-27T15:13:26.975Z,1.47
2023-03-27T15:15:57.794Z,1.30
2023-03-27T15:18:31.345Z,1.03
2023-03-27T15:21:02.284Z,1.80
2023-03-27T15:23:36.765Z,1.03
2023-03-27T15:26:07.106Z,1.20
2023-03-27T15:28:40.773Z,1.80
2023-03-27T15:31:10.012Z,1.23
2023-03-27T15:33:41.126Z,1.47
2023-03-27T15:36:22.487Z,1.50
2023-03-27T15:38:52.300Z,1.50
2023-03-27T15:41:42.387Z,1.50
2023-03-27T15:44:17.354Z,1.67
2023-03-27T15:46:48.674Z,1.70
2023-03-27T15:49:21.686Z,1.77
2023-03-27T15:51:49.876Z,1.80
2023-03-27T15:54:27.126Z,1.40
2023-03-27T15:57:09.289Z,1.60
2023-03-27T15:59:52.812Z,1.17
2023-03-27T16:02:23.407Z,1.20
2023-03-27T16:04:54.394Z,1.40
2023-03-27T16:07:25.066Z,1.27
2023-03-27T16:09:56.663Z,1.47
2023-03-27T16:12:28.281Z,1.30
2023-03-27T16:14:58.204Z,1.50
2023-03-27T16:17:34.559Z,1.33
2023-03-27T16:20:07.854Z,1.40
2023-03-27T16:22:36.703Z,1.27
2023-03-27T16:25:07.640Z,1.27
2023-03-27T16:27:37.469Z,1.30
2023-03-27T16:30:06.720Z,1.30
2023-03-27T16:32:36.156Z,1.20
2023-03-27T16:35:04.599Z,1.07
2023-03-27T16:37:32.973Z,1.33
2023-03-27T16:40:01.681Z,1.30
2023-03-27T16:42:31.489Z,1.43
2023-03-27T16:45:01.904Z,1.53
2023-03-27T16:47:30.475Z,1.80
2023-03-27T16:50:10.807Z,1.37
2023-03-27T16:52:39.975Z,1.50
2023-03-27T16:55:09.190Z,1.60
2023-03-27T16:57:39.101Z,1.50
2023-03-27T17:00:09.505Z,1.37
2023-03-27T17:02:37.977Z,0.90
2023-03-27T17:05:06.786Z,1.27
2023-03-27T17:07:36.068Z,0.60
2023-03-27T17:10:04.592Z,0.50
2023-03-27T17:12:32.987Z,0.60
2023-03-27T17:15:03.608Z,1.20
2023-03-27T17:17:32.123Z,1.10
2023-03-27T17:20:00.805Z,1.17
2023-03-27T17:22:30.005Z,2.87
2023-03-27T17:25:01.225Z,1.10
2023-03-27T17:27:29.806Z,1.00
2023-03-27T17:29:58.195Z,1.07
2023-03-27T17:32:28.226Z,0.80
2023-03-27T17:34:56.639Z,0.90
2023-03-27T17:37:25.977Z,4.10
2023-03-27T17:39:54.374Z,5.97
2023-03-27T17:42:22.829Z,1.50
2023-03-27T17:44:50.881Z,1.00
2023-03-27T17:47:19.282Z,1.63
2023-03-27T17:49:48.662Z,1.00
2023-03-27T17:52:17.683Z,1.03
2023-03-27T17:54:46.135Z,1.00
2023-03-27T17:57:14.535Z,1.23
2023-03-27T17:59:43.080Z,0.93
2023-03-27T18:02:16.591Z,1.00
2023-03-27T18:04:45.283Z,1.27
2023-03-27T18:07:15.136Z,0.90
2023-03-27T18:09:43.940Z,1.00
2023-03-27T18:12:12.329Z,1.07
2023-03-27T18:14:41.530Z,1.00
2023-03-27T18:17:09.944Z,1.20
2023-03-27T18:19:38.417Z,1.43
2023-03-27T18:22:06.867Z,1.20
2023-03-27T18:24:36.692Z,1.27
2023-03-27T18:27:05.188Z,1.17
2023-03-27T18:29:33.996Z,1.00
2023-03-27T18:32:02.382Z,1.03
2023-03-27T18:34:31.230Z,1.10
2023-03-27T18:36:59.704Z,1.60
2023-03-27T18:39:28.154Z,1.03
2023-03-27T18:42:01.751Z,1.47
2023-03-27T18:44:30.317Z,1.50
2023-03-27T18:46:58.816Z,1.23
2023-03-27T18:49:27.210Z,1.73
2023-03-27T18:51:55.791Z,1.43
2023-03-27T18:54:24.368Z,1.27
2023-03-27T18:56:52.987Z,1.13
2023-03-27T18:59:22.776Z,1.53
2023-03-27T19:01:51.213Z,1.40
2023-03-27T19:04:20.047Z,1.50
2023-03-27T19:06:48.424Z,1.33
2023-03-27T19:09:16.888Z,1.40
2023-03-27T19:11:45.416Z,1.40
2023-03-27T19:14:13.772Z,1.57
2023-03-27T19:16:43.601Z,1.40
2023-03-27T19:19:12.149Z,1.73
2023-03-27T19:21:40.610Z,0.97
2023-03-27T19:24:08.770Z,1.57
2023-03-27T19:26:37.508Z,1.47
2023-03-27T19:29:06.063Z,1.63
2023-03-27T19:31:34.486Z,1.37
2023-03-27T19:34:04.589Z,1.37
2023-03-27T19:36:33.364Z,1.30
2023-03-27T19:39:02.446Z,1.63
2023-03-27T19:41:30.773Z,1.40
2023-03-27T19:44:00.355Z,1.37
2023-03-27T19:46:29.492Z,1.77
2023-03-27T19:48:57.854Z,1.10
2023-03-27T19:51:27.613Z,1.27
2023-03-27T19:53:56.042Z,1.10
2023-03-27T19:56:24.752Z,1.20
2023-03-27T19:58:53.304Z,1.13
2023-03-27T20:01:21.789Z,1.00
2023-03-27T20:03:50.378Z,1.27
2023-03-27T20:06:19.640Z,1.50
2023-03-27T20:08:49.423Z,2.43
2023-03-27T20:11:17.851Z,1.67
2023-03-27T20:13:55.908Z,2.77
2023-03-27T20:16:26.290Z,5.07
2023-03-27T20:19:04.359Z,5.03
2023-03-27T20:21:33.752Z,8.67
2023-03-27T20:24:03.781Z,7.33
2023-03-27T20:26:38.853Z,8.03
2023-03-27T20:29:07.388Z,3.13
2023-03-27T20:31:36.027Z,3.70
2023-03-27T20:34:04.407Z,3.30
2023-03-27T20:36:35.075Z,2.53
2023-03-27T20:39:06.375Z,3.20
2023-03-27T20:41:38.791Z,2.87
2023-03-27T20:44:15.760Z,3.20
2023-03-27T20:46:47.209Z,1.77
2023-03-27T20:49:37.530Z,2.60
2023-03-27T20:52:09.120Z,2.50
2023-03-27T20:54:39.217Z,4.17
2023-03-27T20:57:07.841Z,2.97
2023-03-27T20:59:36.448Z,2.63
2023-03-27T21:02:05.248Z,2.97
2023-03-27T21:04:33.609Z,1.93
2023-03-27T21:07:02.049Z,1.77
2023-03-27T21:09:30.393Z,2.10
2023-03-27T21:12:01.376Z,2.50
2023-03-27T21:14:30.422Z,1.40
2023-03-27T21:16:58.983Z,1.97
2023-03-27T21:19:27.386Z,1.80
2023-03-27T21:21:55.996Z,1.60
2023-03-27T21:24:24.421Z,1.73
2023-03-27T21:26:53.037Z,1.17
2023-03-27T21:29:22.888Z,1.30
2023-03-27T21:31:51.275Z,1.30
2023-03-27T21:34:19.693Z,1.50
2023-03-27T21:36:48.141Z,1.30
2023-03-27T21:39:16.643Z,1.33
2023-03-27T21:41:44.999Z,1.00
2023-03-27T21:44:13.376Z,1.00
2023-03-27T21:46:43.204Z,1.40
2023-03-27T21:49:11.557Z,1.30
2023-03-27T21:51:39.870Z,1.17
2023-03-27T21:54:08.226Z,0.80
2023-03-27T21:56:36.553Z,2.10
2023-03-27T21:59:04.627Z,1.10
2023-03-27T22:01:33.090Z,1.10
2023-03-27T22:04:03.035Z,1.27
2023-03-27T22:06:31.660Z,0.60
2023-03-27T22:09:00.082Z,0.97
2023-03-27T22:11:28.418Z,1.43
2023-03-27T22:13:56.773Z,1.37
2023-03-27T22:16:25.257Z,1.33
2023-03-27T22:18:53.678Z,0.90
2023-03-27T22:21:24.603Z,1.10
2023-03-27T22:23:53.432Z,1.10
2023-03-27T22:26:22.431Z,1.20
2023-03-27T22:28:52.325Z,1.00
2023-03-27T22:31:21.201Z,1.63
2023-03-27T22:33:49.793Z,1.10
2023-03-27T22:36:19.258Z,1.33
2023-03-27T22:38:49.273Z,1.40
2023-03-27T22:41:18.006Z,0.93
2023-03-27T22:43:49.282Z,2.03
2023-03-27T22:46:19.302Z,1.33
2023-03-27T22:48:47.767Z,1.13
2023-03-27T22:51:16.315Z,1.33
2023-03-27T22:53:44.787Z,1.47
2023-03-27T22:56:14.536Z,0.80
2023-03-27T22:58:42.936Z,1.00
2023-03-27T23:01:11.046Z,1.20
2023-03-27T23:03:39.893Z,1.50
2023-03-27T23:06:09.235Z,1.40
2023-03-27T23:08:37.595Z,1.20
2023-03-27T23:11:07.467Z,1.60
2023-03-27T23:13:37.470Z,1.53
2023-03-27T23:16:06.214Z,1.20
2023-03-27T23:18:34.623Z,1.20
2023-03-27T23:21:03.641Z,1.43
2023-03-27T23:23:32.593Z,1.60
2023-03-27T23:26:01.560Z,1.43
2023-03-27T23:28:32.000Z,1.10
2023-03-27T23:31:02.862Z,1.40
2023-03-27T23:33:34.600Z,1.50
2023-03-27T23:36:03.892Z,1.00
2023-03-27T23:38:32.987Z,1.13
2023-03-27T23:41:02.121Z,1.40
2023-03-27T23:43:31.612Z,1.03
2023-03-27T23:46:00.543Z,1.27
2023-03-27T23:48:30.635Z,1.30
2023-03-27T23:50:59.446Z,1.03
2023-03-27T23:53:28.664Z,1.53
2023-03-27T23:55:57.969Z,1.20
2023-03-27T23:58:28.687Z,1.40
